Weather at Cap-de-la-Madeleine [CLOSED]

Public forecast

Using degrees Celsius for public forecast. Weather courtesy of forecast.io.

Closest aviation weather report (METAR) to Cap-de-la-Madeleine

Closest report is Trois-Rivières Airport, 6.4 nm (11.9 km) WSW.

2024/07/21 04:52 (retrieved 9 minutes ago)

CYRQ 210452Z AUTO 00000KT 3/8SM FG FEW002 12/12 A3001 RMK SLP166

Closest aviation forecast (TAF) to Cap-de-la-Madeleine

Forecast is more than 12 hours old.

Closest forecast is C J.H.L.(Joe) Lecomte) Heliport, 52.7 nm (97.5 km) NE.

2024/07/19 18:21 Ammendment (retrieved 1 day ago)

TAF AMD TAF AMD CYOY 191918Z 1918/2006 CNL RMK END OF FLY PROGRAM NXT FCST BY 200000Z